Time;durP1;ratioP1;P1;durP2;ratioP2;P2;SDS_P1;SDS_P2;PMS_P1;PMS_P2;Temp;Humidity;BMP_temperature;BMP_pressure;BME280_temperature;BME280_humidity;BME280_pressure;Samples;Min_cycle;Max_cycle;Signal;HPM_P1;HPM_P2
2022/03/06 00:01:13;;;;;;;49.63;43.15;;;1.60;99.90;;;;;;5033456;28;20034;-62
2022/03/06 00:03:39;;;;;;;27.23;20.48;;;1.70;99.90;;;;;;5032276;28;20060;-62
2022/03/06 00:06:05;;;;;;;27.80;16.88;;;1.70;99.90;;;;;;5033799;28;20502;-61
2022/03/06 00:08:31;;;;;;;22.48;13.50;;;1.60;99.90;;;;;;5032728;28;20033;-61
2022/03/06 00:10:57;;;;;;;20.60;13.82;;;1.60;99.90;;;;;;5032955;28;20446;-61
2022/03/06 00:13:23;;;;;;;22.85;13.52;;;1.50;99.90;;;;;;5033042;28;20064;-61
2022/03/06 00:15:49;;;;;;;23.95;12.82;;;1.50;99.90;;;;;;5017338;28;20101;-62
2022/03/06 00:18:15;;;;;;;20.38;12.27;;;1.50;99.90;;;;;;5034655;28;20458;-63
2022/03/06 00:20:42;;;;;;;22.70;11.05;;;1.40;99.90;;;;;;5030919;28;20033;-63
2022/03/06 00:23:08;;;;;;;17.15;9.10;;;1.40;99.90;;;;;;5032529;28;20030;-62
2022/03/06 00:25:34;;;;;;;23.90;15.35;;;1.20;99.90;;;;;;5032196;28;20029;-62
2022/03/06 00:28:00;;;;;;;169.52;138.05;;;1.10;99.90;;;;;;5032232;28;20386;-62
2022/03/06 00:30:26;;;;;;;220.02;186.38;;;1.00;99.90;;;;;;5033890;28;20490;-62
2022/03/06 00:32:52;;;;;;;114.43;95.25;;;1.00;99.90;;;;;;5031934;28;20032;-63
2022/03/06 00:35:18;;;;;;;144.40;116.88;;;1.00;99.90;;;;;;5031816;28;20052;-62
2022/03/06 00:37:44;;;;;;;58.30;44.03;;;1.10;99.90;;;;;;5032165;28;20044;-62
2022/03/06 00:40:10;;;;;;;71.72;45.97;;;1.40;99.90;;;;;;5032915;28;20065;-62
2022/03/06 00:42:36;;;;;;;41.40;27.95;;;1.40;99.90;;;;;;5032373;28;20037;-62
2022/03/06 00:45:03;;;;;;;64.82;54.25;;;1.30;99.90;;;;;;5034141;28;20041;-62
2022/03/06 00:47:29;;;;;;;40.20;30.00;;;1.40;99.90;;;;;;5032286;28;20137;-62
2022/03/06 00:49:56;;;;;;;20.30;12.57;;;1.50;99.90;;;;;;5031757;28;20029;-62
2022/03/06 00:52:22;;;;;;;16.02;10.95;;;1.40;99.90;;;;;;5031981;28;20025;-62
2022/03/06 00:54:48;;;;;;;14.63;8.80;;;1.30;99.90;;;;;;5032111;28;20041;-62
2022/03/06 00:57:14;;;;;;;21.25;13.73;;;1.30;99.90;;;;;;5033656;28;20030;-61
2022/03/06 00:59:40;;;;;;;19.42;14.55;;;1.30;99.90;;;;;;5029761;28;20046;-62
2022/03/06 01:02:06;;;;;;;21.23;11.68;;;1.30;99.90;;;;;;5031767;28;20104;-62
2022/03/06 01:04:33;;;;;;;14.90;8.68;;;1.30;99.90;;;;;;5030575;28;20065;-62
2022/03/06 01:06:59;;;;;;;21.10;15.15;;;1.20;99.90;;;;;;5031532;28;20033;-62
2022/03/06 01:09:25;;;;;;;35.30;25.17;;;1.20;99.90;;;;;;5033091;28;20387;-62
2022/03/06 01:11:51;;;;;;;85.68;73.80;;;1.20;99.90;;;;;;5031459;28;20029;-62
2022/03/06 01:14:17;;;;;;;87.63;68.85;;;1.10;99.90;;;;;;5030028;28;20437;-62
2022/03/06 01:16:43;;;;;;;50.47;41.13;;;1.10;99.90;;;;;;5031182;28;20029;-63
2022/03/06 01:19:09;;;;;;;34.05;28.15;;;1.00;99.90;;;;;;5031654;28;20083;-62
2022/03/06 01:21:34;;;;;;;27.70;20.20;;;1.00;99.90;;;;;;5031903;28;20029;-63
2022/03/06 01:24:00;;;;;;;27.77;20.77;;;0.90;99.90;;;;;;5033073;28;20104;-62
2022/03/06 01:26:26;;;;;;;25.02;17.63;;;0.80;99.90;;;;;;5031523;28;20028;-62
2022/03/06 01:28:52;;;;;;;30.15;17.58;;;0.90;99.90;;;;;;5031444;28;20437;-62
2022/03/06 01:31:17;;;;;;;32.70;23.10;;;0.80;99.90;;;;;;5031132;28;20071;-62
2022/03/06 01:33:43;;;;;;;28.83;22.52;;;0.90;99.90;;;;;;5031437;28;20071;-62
2022/03/06 01:36:09;;;;;;;27.80;21.75;;;0.90;99.90;;;;;;5032891;28;20098;-62
2022/03/06 01:38:35;;;;;;;25.52;19.50;;;1.00;99.90;;;;;;5030339;28;20049;-62
2022/03/06 01:41:01;;;;;;;23.60;17.45;;;1.10;99.90;;;;;;5031078;28;20440;-61
2022/03/06 01:43:27;;;;;;;23.65;17.00;;;1.10;99.90;;;;;;5031238;28;20112;-61
2022/03/06 01:45:53;;;;;;;93.15;77.30;;;1.10;99.90;;;;;;5030896;28;20061;-62
2022/03/06 01:48:18;;;;;;;41.65;30.48;;;1.20;99.90;;;;;;5033431;28;20086;-61
2022/03/06 01:50:45;;;;;;;32.83;22.83;;;1.30;99.90;;;;;;5030839;28;20029;-61
2022/03/06 01:53:12;;;;;;;36.80;26.98;;;1.30;99.90;;;;;;5029357;28;20025;-62
2022/03/06 01:55:39;;;;;;;31.33;22.27;;;1.40;99.90;;;;;;5031041;28;20159;-61
2022/03/06 01:58:08;;;;;;;32.60;23.70;;;1.40;99.90;;;;;;5031037;28;20034;-62
2022/03/06 02:00:37;;;;;;;37.17;25.25;;;1.40;99.90;;;;;;5031219;28;20029;-62
2022/03/06 02:03:04;;;;;;;34.92;25.10;;;1.30;99.90;;;;;;5030706;28;20406;-62
2022/03/06 02:05:30;;;;;;;33.15;23.70;;;1.30;99.90;;;;;;5031164;28;20037;-61
2022/03/06 02:07:55;;;;;;;35.35;25.48;;;1.40;99.90;;;;;;5030831;28;20087;-62
2022/03/06 02:10:21;;;;;;;30.80;24.20;;;1.30;99.90;;;;;;5030099;28;20030;-62
2022/03/06 02:12:48;;;;;;;32.53;22.25;;;1.20;99.90;;;;;;5030758;28;20052;-61
2022/03/06 02:15:16;;;;;;;28.27;20.13;;;1.30;99.90;;;;;;5032094;28;20601;-61
2022/03/06 02:17:42;;;;;;;27.35;20.50;;;1.30;99.90;;;;;;5029071;28;20032;-62
2022/03/06 02:20:22;;;;;;;26.77;18.80;;;1.30;99.90;;;;;;5030468;28;20037;-61
2022/03/06 02:22:54;;;;;;;27.40;20.52;;;1.40;99.90;;;;;;5030792;28;20025;-62
2022/03/06 02:25:29;;;;;;;28.35;21.27;;;1.40;99.90;;;;;;5030428;28;20061;-62
2022/03/06 02:27:58;;;;;;;28.60;20.50;;;1.40;99.90;;;;;;5015196;28;20437;-61
2022/03/06 02:30:27;;;;;;;26.95;19.42;;;1.40;99.90;;;;;;5031888;28;20051;-62
2022/03/06 02:32:54;;;;;;;24.40;19.30;;;1.40;99.90;;;;;;5029733;28;20552;-62
2022/03/06 02:35:20;;;;;;;27.85;20.33;;;1.40;99.90;;;;;;5027247;28;20041;-62
2022/03/06 02:37:47;;;;;;;24.42;18.65;;;1.30;99.90;;;;;;5030141;28;20350;-62
2022/03/06 02:40:14;;;;;;;26.95;19.42;;;1.30;99.90;;;;;;5030242;28;20109;-61
2022/03/06 02:42:43;;;;;;;29.60;19.73;;;1.30;99.90;;;;;;5030596;28;20030;-61
2022/03/06 02:45:17;;;;;;;25.05;20.02;;;1.40;99.90;;;;;;5031760;28;20529;-62
2022/03/06 02:47:43;;;;;;;26.80;20.02;;;1.40;99.90;;;;;;5030391;28;20081;-62
2022/03/06 02:50:13;;;;;;;26.20;19.80;;;1.50;99.90;;;;;;5030095;28;20029;-62
2022/03/06 02:52:39;;;;;;;26.02;19.52;;;1.50;99.90;;;;;;5029962;28;20033;-61
2022/03/06 02:55:07;;;;;;;25.92;20.50;;;1.60;99.90;;;;;;5028467;28;20026;-61
2022/03/06 02:57:33;;;;;;;24.85;19.88;;;1.50;99.90;;;;;;5030644;28;20168;-62
2022/03/06 02:59:59;;;;;;;26.48;19.63;;;1.40;99.90;;;;;;5031347;28;20068;-62
2022/03/06 03:02:25;;;;;;;21.33;17.05;;;1.30;99.90;;;;;;5029648;28;20093;-62
2022/03/06 03:04:51;;;;;;;19.60;16.13;;;1.50;99.90;;;;;;5029077;28;20033;-62
2022/03/06 03:07:17;;;;;;;19.48;14.90;;;1.60;99.90;;;;;;5029761;28;20117;-61
2022/03/06 03:09:43;;;;;;;17.75;14.57;;;1.70;99.90;;;;;;5029668;28;20033;-62
2022/03/06 03:12:09;;;;;;;19.35;13.00;;;1.60;99.90;;;;;;5030961;28;20029;-62
2022/03/06 03:14:36;;;;;;;14.43;10.57;;;1.60;99.90;;;;;;5029411;28;20033;-62
2022/03/06 03:17:03;;;;;;;16.70;11.25;;;1.70;99.90;;;;;;5029391;28;20027;-62
2022/03/06 03:19:29;;;;;;;15.52;10.80;;;1.60;99.90;;;;;;5029930;28;20053;-62
2022/03/06 03:21:55;;;;;;;15.80;10.70;;;1.50;99.90;;;;;;5029774;28;20033;-62
2022/03/06 03:24:23;;;;;;;15.65;10.57;;;1.60;99.90;;;;;;5035624;28;20035;-62
2022/03/06 03:26:49;;;;;;;15.48;10.60;;;1.60;99.90;;;;;;5034080;28;20120;-62
2022/03/06 03:29:14;;;;;;;19.33;11.93;;;1.70;99.90;;;;;;5033336;28;20030;-62
2022/03/06 03:31:40;;;;;;;14.45;11.07;;;1.50;99.90;;;;;;5033367;28;20067;-62
2022/03/06 03:34:06;;;;;;;17.90;10.95;;;1.30;99.90;;;;;;5032537;28;20091;-62
2022/03/06 03:36:32;;;;;;;14.70;10.23;;;1.40;99.90;;;;;;5034346;28;20076;-62
2022/03/06 03:38:57;;;;;;;14.88;10.38;;;1.40;99.90;;;;;;5035141;28;20075;-62
2022/03/06 03:41:24;;;;;;;17.08;12.20;;;1.50;99.90;;;;;;5033446;28;20021;-61
2022/03/06 03:43:53;;;;;;;15.52;10.30;;;1.50;99.90;;;;;;5033012;28;20037;-62
2022/03/06 03:46:19;;;;;;;19.38;12.23;;;1.40;99.90;;;;;;5033558;28;20101;-62
2022/03/06 03:48:46;;;;;;;17.27;10.95;;;1.30;99.90;;;;;;5033266;28;20038;-62
2022/03/06 03:51:12;;;;;;;17.23;11.38;;;1.40;99.90;;;;;;5034203;28;20030;-62
2022/03/06 03:53:37;;;;;;;11.50;8.65;;;1.50;99.90;;;;;;5033424;28;20030;-62
2022/03/06 03:56:06;;;;;;;14.70;9.60;;;1.90;99.90;;;;;;5033647;28;20032;-62
2022/03/06 03:58:33;;;;;;;14.98;9.35;;;1.90;99.90;;;;;;5032911;28;20379;-62
2022/03/06 04:01:00;;;;;;;18.20;11.23;;;1.80;99.90;;;;;;5033230;28;20036;-61
2022/03/06 04:03:26;;;;;;;17.38;13.00;;;1.70;99.90;;;;;;5034631;28;20029;-61
2022/03/06 04:05:52;;;;;;;21.50;17.08;;;1.70;99.90;;;;;;5033590;28;20048;-62
2022/03/06 04:08:18;;;;;;;19.02;14.30;;;1.70;99.90;;;;;;5033219;28;20434;-62
2022/03/06 04:10:44;;;;;;;26.63;21.05;;;1.80;99.90;;;;;;5032809;28;20025;-62
2022/03/06 04:13:10;;;;;;;25.27;20.48;;;1.80;99.90;;;;;;5031640;28;20022;-62
2022/03/06 04:15:37;;;;;;;19.92;16.27;;;1.70;99.90;;;;;;5033694;28;20033;-62
2022/03/06 04:18:03;;;;;;;14.13;11.77;;;1.70;99.90;;;;;;5032548;28;20519;-62
2022/03/06 04:20:30;;;;;;;17.73;10.82;;;1.70;99.90;;;;;;5032709;28;20513;-62
2022/03/06 04:22:56;;;;;;;19.13;12.13;;;1.80;99.90;;;;;;5032870;28;20026;-61
2022/03/06 04:25:22;;;;;;;17.25;12.55;;;1.70;99.90;;;;;;5032409;28;20402;-61
2022/03/06 04:27:48;;;;;;;15.63;12.93;;;1.60;99.90;;;;;;5032044;28;20022;-62
2022/03/06 04:30:14;;;;;;;16.85;13.07;;;1.40;99.90;;;;;;5033792;28;20028;-62
2022/03/06 04:32:39;;;;;;;20.33;12.45;;;1.30;99.90;;;;;;5032891;28;20032;-62
2022/03/06 04:35:06;;;;;;;19.42;13.02;;;1.20;99.90;;;;;;5032315;28;20040;-62
2022/03/06 04:37:32;;;;;;;23.65;18.35;;;1.10;99.90;;;;;;5032638;28;20079;-61
2022/03/06 04:39:58;;;;;;;19.42;14.27;;;1.30;99.90;;;;;;5031785;28;20049;-62
2022/03/06 04:42:24;;;;;;;55.65;43.15;;;1.40;99.90;;;;;;5034033;28;20364;-62
2022/03/06 04:44:50;;;;;;;51.08;41.53;;;1.40;99.90;;;;;;5031580;28;20037;-62
2022/03/06 04:47:16;;;;;;;29.38;24.17;;;1.60;99.90;;;;;;5032341;28;20051;-61
2022/03/06 04:49:41;;;;;;;20.38;13.98;;;1.60;99.90;;;;;;5032755;28;20086;-62
2022/03/06 04:52:07;;;;;;;20.13;14.35;;;1.70;99.90;;;;;;5030976;28;20463;-62
2022/03/06 04:54:33;;;;;;;27.95;23.63;;;1.70;99.90;;;;;;5031529;28;20471;-62
2022/03/06 04:57:00;;;;;;;23.95;14.88;;;1.70;99.90;;;;;;5033503;28;20026;-62
2022/03/06 04:59:27;;;;;;;23.50;14.98;;;1.80;99.90;;;;;;5032342;28;20069;-62
2022/03/06 05:01:53;;;;;;;21.33;15.85;;;1.90;99.90;;;;;;5032097;28;20105;-62
2022/03/06 05:04:19;;;;;;;19.20;14.82;;;1.90;99.90;;;;;;5032035;28;20025;-62
2022/03/06 05:06:45;;;;;;;20.02;15.30;;;2.00;99.90;;;;;;5031741;28;20045;-62
2022/03/06 05:09:11;;;;;;;21.55;15.15;;;2.00;99.90;;;;;;5032361;28;20053;-62
2022/03/06 05:11:37;;;;;;;17.45;13.27;;;2.10;99.90;;;;;;5031881;28;20462;-62
2022/03/06 05:14:03;;;;;;;19.33;13.10;;;2.30;99.90;;;;;;5031728;28;20036;-62
2022/03/06 05:16:29;;;;;;;18.98;13.70;;;2.40;99.90;;;;;;5030815;28;20056;-62
2022/03/06 05:18:56;;;;;;;19.88;14.55;;;2.40;99.90;;;;;;5031832;28;20033;-62
2022/03/06 05:21:22;;;;;;;56.85;47.88;;;2.40;99.90;;;;;;5033551;28;20111;-62
2022/03/06 05:23:47;;;;;;;44.67;37.10;;;2.30;99.90;;;;;;5031564;28;20496;-62
2022/03/06 05:26:13;;;;;;;33.80;28.42;;;2.40;99.90;;;;;;5031383;28;20516;-62
2022/03/06 05:28:41;;;;;;;28.63;18.02;;;2.30;99.90;;;;;;5031471;28;20026;-62
2022/03/06 05:31:07;;;;;;;24.23;17.25;;;2.30;99.90;;;;;;5030326;28;20028;-62
2022/03/06 05:33:33;;;;;;;25.15;17.45;;;2.30;99.90;;;;;;5032620;28;20028;-62
2022/03/06 05:35:58;;;;;;;20.42;15.07;;;2.30;99.90;;;;;;5032425;28;20532;-62
2022/03/06 05:38:24;;;;;;;20.15;15.20;;;2.30;99.90;;;;;;5031376;28;20566;-63
2022/03/06 05:40:50;;;;;;;20.67;14.55;;;2.30;99.90;;;;;;5031247;28;20494;-63
2022/03/06 05:43:16;;;;;;;24.63;16.27;;;2.40;99.90;;;;;;5028591;28;20429;-62
2022/03/06 05:45:42;;;;;;;21.73;15.40;;;2.30;99.90;;;;;;5031214;28;20030;-63
2022/03/06 05:48:08;;;;;;;20.95;16.65;;;2.30;99.90;;;;;;5031528;28;20030;-63
2022/03/06 05:50:34;;;;;;;21.20;16.25;;;2.40;99.90;;;;;;5031178;28;20120;-62
2022/03/06 05:53:00;;;;;;;20.52;16.08;;;2.40;99.90;;;;;;5031328;28;20501;-62
2022/03/06 05:55:26;;;;;;;18.15;14.75;;;2.40;99.90;;;;;;5031037;28;20025;-62
2022/03/06 05:57:51;;;;;;;26.05;15.95;;;2.50;99.90;;;;;;5031184;28;20037;-62
2022/03/06 06:00:18;;;;;;;22.48;14.98;;;2.50;99.90;;;;;;5032830;28;20115;-63
2022/03/06 06:02:44;;;;;;;23.85;16.60;;;2.60;99.90;;;;;;5030884;28;20029;-62
2022/03/06 06:05:10;;;;;;;22.45;17.25;;;2.60;99.90;;;;;;5031154;28;20030;-62
2022/03/06 06:07:36;;;;;;;24.80;16.98;;;2.60;99.90;;;;;;5030450;28;20474;-62
2022/03/06 06:10:04;;;;;;;23.38;17.90;;;2.70;99.90;;;;;;5029484;28;20029;-62
2022/03/06 06:12:29;;;;;;;21.70;17.75;;;2.80;99.90;;;;;;5032095;28;20045;-62
2022/03/06 06:14:55;;;;;;;23.92;19.77;;;2.80;99.90;;;;;;5031415;28;20457;-62
2022/03/06 06:17:21;;;;;;;23.63;17.75;;;2.80;99.90;;;;;;5031070;28;20041;-62
2022/03/06 06:19:47;;;;;;;22.67;17.30;;;3.00;99.90;;;;;;5030194;28;20049;-62
2022/03/06 06:22:12;;;;;;;21.42;16.05;;;3.00;99.90;;;;;;5030638;28;20029;-62
2022/03/06 06:24:38;;;;;;;18.35;15.27;;;3.10;99.90;;;;;;5031146;28;20068;-63
2022/03/06 06:27:04;;;;;;;20.98;15.95;;;3.20;99.90;;;;;;5030218;28;20033;-62
2022/03/06 06:29:30;;;;;;;23.55;18.13;;;3.20;99.90;;;;;;5030180;28;20025;-62
2022/03/06 06:31:56;;;;;;;22.98;17.10;;;3.30;99.90;;;;;;5030291;28;20028;-62
2022/03/06 06:34:22;;;;;;;25.80;19.55;;;3.20;99.90;;;;;;5030818;28;20490;-62
2022/03/06 06:36:48;;;;;;;18.58;15.00;;;3.30;99.90;;;;;;5029862;28;20071;-62
2022/03/06 06:39:14;;;;;;;20.63;16.17;;;3.40;99.90;;;;;;5031897;28;20038;-62
2022/03/06 06:41:43;;;;;;;20.05;17.77;;;3.40;99.90;;;;;;5030127;28;20068;-62
2022/03/06 06:44:09;;;;;;;24.48;19.85;;;3.50;99.90;;;;;;5030534;28;20055;-62
2022/03/06 06:46:35;;;;;;;22.63;15.98;;;3.40;99.90;;;;;;5030006;28;20029;-62
2022/03/06 06:49:03;;;;;;;23.95;17.67;;;3.40;99.90;;;;;;5028879;28;20045;-62
2022/03/06 06:51:30;;;;;;;24.42;17.13;;;3.50;99.90;;;;;;5031012;28;20017;-62
2022/03/06 06:53:56;;;;;;;24.15;18.60;;;3.50;99.90;;;;;;5030510;28;20025;-62
2022/03/06 06:56:22;;;;;;;22.25;18.35;;;3.50;99.90;;;;;;5030137;28;20508;-62
2022/03/06 06:58:47;;;;;;;24.60;18.85;;;3.50;99.90;;;;;;5029043;28;20048;-62
2022/03/06 07:01:16;;;;;;;23.95;17.17;;;3.60;99.90;;;;;;5029936;28;20021;-62
2022/03/06 07:03:42;;;;;;;21.92;17.88;;;3.70;99.90;;;;;;5030051;28;20075;-62
2022/03/06 07:06:07;;;;;;;23.35;17.33;;;3.80;99.90;;;;;;5029702;28;20030;-62
2022/03/06 07:08:33;;;;;;;23.55;17.52;;;3.80;99.90;;;;;;5030047;28;20117;-63
2022/03/06 07:10:59;;;;;;;21.30;16.80;;;3.80;99.90;;;;;;5029735;28;20030;-63
2022/03/06 07:13:25;;;;;;;23.75;18.08;;;4.00;99.90;;;;;;5029892;28;20079;-62
2022/03/06 07:15:50;;;;;;;21.42;16.73;;;3.90;99.90;;;;;;5030207;28;20494;-62
2022/03/06 07:18:16;;;;;;;26.13;17.42;;;4.00;99.90;;;;;;5031690;28;20025;-63
2022/03/06 07:20:42;;;;;;;23.55;16.70;;;4.00;99.90;;;;;;5029346;28;20490;-63
2022/03/06 07:23:08;;;;;;;23.92;18.30;;;4.10;99.90;;;;;;5029371;28;20021;-62
2022/03/06 07:25:34;;;;;;;24.05;19.52;;;4.10;99.90;;;;;;5029676;28;20034;-62
2022/03/06 07:27:59;;;;;;;29.98;19.90;;;4.10;99.90;;;;;;5028785;28;20022;-63
2022/03/06 07:30:25;;;;;;;26.48;20.02;;;4.10;99.90;;;;;;5031099;28;20044;-62
2022/03/06 07:32:52;;;;;;;24.02;19.05;;;4.10;99.90;;;;;;5030410;28;20028;-62
2022/03/06 07:35:20;;;;;;;25.73;19.30;;;4.10;99.90;;;;;;5029008;28;20509;-62
2022/03/06 07:37:46;;;;;;;24.25;19.60;;;4.20;99.90;;;;;;5029683;28;20107;-62
2022/03/06 07:40:15;;;;;;;29.25;21.60;;;4.30;99.90;;;;;;5029615;28;20116;-62
2022/03/06 07:42:41;;;;;;;25.75;20.48;;;4.30;99.90;;;;;;5029824;28;20112;-63
2022/03/06 07:45:07;;;;;;;25.30;18.98;;;4.40;99.90;;;;;;5029987;28;20076;-62
2022/03/06 07:47:33;;;;;;;33.40;24.33;;;4.40;99.90;;;;;;5028999;28;20510;-62
2022/03/06 07:49:59;;;;;;;31.67;25.92;;;4.50;99.90;;;;;;5028949;28;20029;-62
2022/03/06 07:52:25;;;;;;;60.67;53.78;;;4.60;99.90;;;;;;5029414;28;20054;-62
2022/03/06 07:54:51;;;;;;;53.30;47.50;;;4.50;99.90;;;;;;5029696;28;20587;-62
2022/03/06 07:57:16;;;;;;;43.10;37.33;;;4.40;99.90;;;;;;5031189;28;20053;-62
2022/03/06 07:59:42;;;;;;;38.05;31.58;;;4.40;99.90;;;;;;5029141;28;20128;-62
2022/03/06 08:02:08;;;;;;;33.28;26.45;;;4.40;99.90;;;;;;5029304;28;20026;-62
2022/03/06 08:04:33;;;;;;;35.85;29.83;;;4.50;99.90;;;;;;5026061;28;20037;-62
2022/03/06 08:06:59;;;;;;;41.40;30.45;;;4.50;99.90;;;;;;5028392;28;20026;-62
2022/03/06 08:09:25;;;;;;;44.63;33.33;;;4.60;99.90;;;;;;5032700;28;20100;-62
2022/03/06 08:11:54;;;;;;;43.42;30.70;;;4.50;99.90;;;;;;5033303;28;20398;-63
2022/03/06 08:14:19;;;;;;;39.53;30.67;;;4.70;99.90;;;;;;5032892;28;20116;-63
2022/03/06 08:16:45;;;;;;;38.05;30.35;;;4.70;99.90;;;;;;5032791;28;20112;-62
2022/03/06 08:19:11;;;;;;;38.45;28.30;;;4.80;99.90;;;;;;5032734;28;20038;-62
2022/03/06 08:21:39;;;;;;;44.38;31.92;;;4.80;99.90;;;;;;5033530;28;20025;-62
2022/03/06 08:24:05;;;;;;;52.40;34.53;;;4.90;99.90;;;;;;5032715;28;20507;-62
2022/03/06 08:26:31;;;;;;;60.22;38.42;;;4.90;99.90;;;;;;5029954;28;20026;-62
2022/03/06 08:28:57;;;;;;;53.80;40.20;;;4.90;99.90;;;;;;5032480;28;20079;-62
2022/03/06 08:31:23;;;;;;;72.88;47.53;;;5.00;99.90;;;;;;5033006;28;20191;-63
2022/03/06 08:33:48;;;;;;;55.25;37.25;;;5.00;99.90;;;;;;5032081;28;20069;-63
2022/03/06 08:36:15;;;;;;;111.63;61.03;;;5.10;99.90;;;;;;5034047;28;20041;-63
2022/03/06 08:38:41;;;;;;;93.32;55.63;;;5.20;99.90;;;;;;5032446;28;20044;-60
2022/03/06 08:41:07;;;;;;;68.57;35.88;;;5.20;99.90;;;;;;5032114;28;20103;-61
2022/03/06 08:43:32;;;;;;;71.43;36.03;;;5.20;99.90;;;;;;5031431;28;20080;-61
2022/03/06 08:45:58;;;;;;;104.05;41.78;;;5.20;99.90;;;;;;5030810;28;20113;-62
2022/03/06 08:48:24;;;;;;;111.43;57.28;;;5.20;99.90;;;;;;5032625;28;20030;-62
2022/03/06 08:50:50;;;;;;;96.57;51.58;;;5.20;99.90;;;;;;5031339;28;20029;-62
2022/03/06 08:53:18;;;;;;;106.20;56.78;;;5.30;99.90;;;;;;5031526;28;20026;-62
2022/03/06 08:55:44;;;;;;;99.18;59.30;;;5.30;99.90;;;;;;5032094;28;20116;-62
2022/03/06 08:58:10;;;;;;;112.55;63.88;;;5.30;99.90;;;;;;5031922;28;20053;-62
2022/03/06 09:00:36;;;;;;;93.15;55.03;;;5.30;99.90;;;;;;5032223;28;20539;-61
2022/03/06 09:03:02;;;;;;;92.30;57.50;;;5.40;99.90;;;;;;5031880;28;20402;-62
2022/03/06 09:05:28;;;;;;;90.57;57.47;;;5.50;99.90;;;;;;5032385;28;20108;-62
2022/03/06 09:07:55;;;;;;;115.60;73.45;;;5.60;99.90;;;;;;5030072;28;20488;-62
2022/03/06 09:10:22;;;;;;;81.35;54.65;;;5.70;99.90;;;;;;5031408;28;20028;-62
2022/03/06 09:12:48;;;;;;;77.70;47.10;;;5.80;99.90;;;;;;5032233;28;20083;-61
2022/03/06 09:15:14;;;;;;;55.08;39.25;;;5.80;99.90;;;;;;5033037;28;20025;-62
2022/03/06 09:17:40;;;;;;;49.35;34.55;;;5.90;99.90;;;;;;5031686;28;20037;-62
2022/03/06 09:20:06;;;;;;;58.40;39.20;;;6.10;99.90;;;;;;5030473;28;20515;-61
2022/03/06 09:22:32;;;;;;;46.97;34.08;;;6.20;99.90;;;;;;5029881;28;20029;-61
2022/03/06 09:24:58;;;;;;;61.03;43.08;;;6.30;99.90;;;;;;5030122;28;20514;-62
2022/03/06 09:27:23;;;;;;;59.42;37.70;;;6.40;99.90;;;;;;5032894;28;20525;-62
2022/03/06 09:29:49;;;;;;;38.72;29.60;;;6.40;99.90;;;;;;5031003;28;20383;-62
2022/03/06 09:32:15;;;;;;;41.53;30.92;;;6.60;99.90;;;;;;5031271;28;20571;-62
2022/03/06 09:34:42;;;;;;;45.90;34.13;;;6.80;99.90;;;;;;5030830;28;20470;-63
2022/03/06 09:37:08;;;;;;;45.42;33.53;;;6.90;99.90;;;;;;5031195;28;20502;-64
2022/03/06 09:39:34;;;;;;;48.05;37.42;;;6.90;99.90;;;;;;5031844;28;20038;-62
2022/03/06 09:42:00;;;;;;;42.30;33.60;;;7.10;99.90;;;;;;5030740;28;20485;-59
2022/03/06 09:44:27;;;;;;;46.05;35.60;;;7.30;99.90;;;;;;5030675;28;20505;-60
2022/03/06 09:46:57;;;;;;;46.60;36.22;;;7.20;99.90;;;;;;5030715;28;20100;-60
2022/03/06 09:49:24;;;;;;;43.85;36.08;;;7.20;99.90;;;;;;5031267;28;20053;-60
2022/03/06 09:51:50;;;;;;;34.47;29.63;;;7.60;99.90;;;;;;5030919;28;20032;-59
2022/03/06 09:54:17;;;;;;;35.83;29.08;;;7.70;99.90;;;;;;5032572;28;20398;-60
2022/03/06 09:56:43;;;;;;;32.95;28.58;;;8.00;99.90;;;;;;5030826;28;20107;-61
2022/03/06 09:59:10;;;;;;;30.13;25.80;;;8.30;99.90;;;;;;5030978;28;20043;-61
2022/03/06 10:01:36;;;;;;;32.83;26.02;;;8.60;99.90;;;;;;5030683;28;20075;-62
2022/03/06 10:04:25;;;;;;;33.50;26.45;;;8.60;99.90;;;;;;5029725;28;20040;-62
2022/03/06 10:07:11;;;;;;;33.88;27.20;;;8.90;99.90;;;;;;5030983;28;20415;-61
2022/03/06 10:09:58;;;;;;;31.92;26.17;;;8.80;99.90;;;;;;5029078;28;20025;-61
2022/03/06 10:12:29;;;;;;;27.77;23.75;;;9.10;99.90;;;;;;5028059;28;20037;-62
2022/03/06 10:14:58;;;;;;;30.52;27.15;;;9.40;99.90;;;;;;5030754;28;20085;-61
2022/03/06 10:17:26;;;;;;;28.42;25.42;;;9.70;99.90;;;;;;5030385;28;20038;-62
2022/03/06 10:20:09;;;;;;;27.88;24.92;;;9.70;99.90;;;;;;5028815;28;20095;-61
2022/03/06 10:22:38;;;;;;;30.00;25.90;;;9.80;99.90;;;;;;5030369;28;20402;-61
2022/03/06 10:25:13;;;;;;;26.85;23.95;;;10.70;99.90;;;;;;5030201;28;20018;-61
2022/03/06 10:27:49;;;;;;;28.52;23.77;;;11.20;99.90;;;;;;5029878;28;20053;-60
2022/03/06 10:30:31;;;;;;;27.08;22.67;;;11.00;99.90;;;;;;5031748;28;20482;-61
2022/03/06 10:33:11;;;;;;;26.58;23.80;;;11.60;99.90;;;;;;5045856;28;20033;-62
2022/03/06 10:35:43;;;;;;;29.45;24.65;;;11.70;99.90;;;;;;5028645;28;20453;-61
2022/03/06 10:38:25;;;;;;;27.77;24.38;;;12.40;99.90;;;;;;5029426;28;20030;-61
2022/03/06 10:40:51;;;;;;;27.77;24.27;;;11.90;99.90;;;;;;5030237;28;20041;-62
2022/03/06 10:43:23;;;;;;;26.10;23.25;;;12.60;99.90;;;;;;5028703;28;20399;-61
2022/03/06 10:45:50;;;;;;;26.20;23.45;;;13.40;99.90;;;;;;5030034;28;20469;-61
2022/03/06 10:48:16;;;;;;;27.42;22.92;;;13.20;99.90;;;;;;5031762;28;20099;-61
2022/03/06 10:50:42;;;;;;;29.83;26.67;;;14.20;99.90;;;;;;5029824;28;20041;-62
2022/03/06 10:53:29;;;;;;;23.60;21.13;;;15.90;99.90;;;;;;5029674;28;20670;-62
2022/03/06 10:56:04;;;;;;;24.27;21.67;;;16.30;99.90;;;;;;5029780;28;20029;-61
2022/03/06 10:58:31;;;;;;;22.85;20.45;;;17.60;99.90;;;;;;5027816;28;20038;-61
2022/03/06 11:00:57;;;;;;;22.70;20.42;;;16.10;99.90;;;;;;5030318;28;20395;-62
2022/03/06 11:03:25;;;;;;;24.17;21.23;;;16.00;99.90;;;;;;5031851;28;20017;-62
2022/03/06 11:05:52;;;;;;;23.42;21.13;;;15.30;99.90;;;;;;5029973;28;20040;-62
2022/03/06 11:08:18;;;;;;;23.25;20.85;;;14.30;99.90;;;;;;5029789;28;20044;-62
2022/03/06 11:10:44;;;;;;;23.33;20.85;;;13.40;99.90;;;;;;5029706;28;20033;-62
2022/03/06 11:13:12;;;;;;;32.92;29.63;;;13.60;99.90;;;;;;5029830;28;20106;-62
2022/03/06 11:15:39;;;;;;;27.48;24.58;;;13.90;99.90;;;;;;5029971;28;20117;-62
2022/03/06 11:18:06;;;;;;;24.58;22.08;;;14.40;99.90;;;;;;5029039;28;20027;-62
2022/03/06 11:20:33;;;;;;;25.75;22.98;;;14.50;99.90;;;;;;5029883;28;20038;-61
2022/03/06 11:23:26;;;;;;;23.63;21.17;;;14.20;99.90;;;;;;5027582;28;20109;-62
2022/03/06 11:26:01;;;;;;;23.67;21.25;;;14.30;99.90;;;;;;5028728;28;20025;-62
2022/03/06 11:28:49;;;;;;;23.23;20.75;;;14.20;99.90;;;;;;5029640;28;20060;-62
2022/03/06 11:31:15;;;;;;;42.28;37.88;;;14.40;99.90;;;;;;5016207;28;20045;-62
2022/03/06 11:33:57;;;;;;;37.78;33.35;;;15.30;99.90;;;;;;5029516;28;20512;-62
2022/03/06 11:36:26;;;;;;;22.58;20.20;;;16.50;99.90;;;;;;5027434;28;20044;-62
2022/03/06 11:38:53;;;;;;;22.17;19.98;;;16.10;99.90;;;;;;5030353;28;20064;-62
2022/03/06 11:41:19;;;;;;;23.25;20.85;;;15.70;99.90;;;;;;5029075;28;20018;-62
2022/03/06 11:43:48;;;;;;;24.23;21.65;;;14.80;99.90;;;;;;5030696;28;20037;-62
2022/03/06 11:46:19;;;;;;;23.70;21.30;;;13.60;99.90;;;;;;5033540;28;20536;-61
2022/03/06 11:48:45;;;;;;;21.92;19.67;;;14.80;99.90;;;;;;5033148;28;20079;-61
2022/03/06 11:51:20;;;;;;;21.98;19.73;;;15.70;99.90;;;;;;5034977;28;20025;-63
2022/03/06 11:54:02;;;;;;;26.15;21.60;;;15.00;99.90;;;;;;5033267;28;20033;-61
2022/03/06 11:56:39;;;;;;;21.83;19.48;;;15.20;99.90;;;;;;5032848;28;20029;-62
2022/03/06 11:59:17;;;;;;;21.27;19.17;;;14.90;99.90;;;;;;5033017;28;20030;-63
2022/03/06 12:01:48;;;;;;;19.92;17.90;;;14.10;99.90;;;;;;5031616;28;20104;-61
2022/03/06 12:04:15;;;;;;;21.08;18.85;;;13.80;99.90;;;;;;5033604;28;20025;-60
2022/03/06 12:06:42;;;;;;;27.77;25.13;;;13.80;99.90;;;;;;5033198;28;20071;-61
2022/03/06 12:09:35;;;;;;;20.13;18.02;;;13.00;99.90;;;;;;5034519;28;20028;-61
2022/03/06 12:12:07;;;;;;;20.92;18.73;;;12.30;99.90;;;;;;5033110;28;20053;-60
2022/03/06 12:14:52;;;;;;;22.13;20.00;;;12.50;99.90;;;;;;5032785;28;20103;-60
2022/03/06 12:17:20;;;;;;;21.35;19.15;;;12.60;99.90;;;;;;5031197;28;20037;-61
2022/03/06 12:19:46;;;;;;;23.17;19.77;;;13.00;99.90;;;;;;5032589;28;20064;-61
2022/03/06 12:22:19;;;;;;;21.52;19.33;;;13.30;97.40;;;;;;5032861;28;20052;-60
2022/03/06 12:24:47;;;;;;;20.10;18.07;;;13.90;96.70;;;;;;5032753;28;20084;-61
2022/03/06 12:27:20;;;;;;;21.35;19.05;;;13.70;96.60;;;;;;5034401;28;20796;-61
2022/03/06 12:29:46;;;;;;;21.63;19.33;;;13.80;94.90;;;;;;5032345;28;20410;-60
2022/03/06 12:32:27;;;;;;;20.27;18.17;;;13.90;94.60;;;;;;5032857;28;20026;-61
2022/03/06 12:34:57;;;;;;;22.70;20.30;;;13.60;94.80;;;;;;5032585;28;20031;-61
2022/03/06 12:37:30;;;;;;;20.38;18.15;;;13.10;91.60;;;;;;5031766;28;20034;-61